Aérodrome :







RETROUVEZ-NOUS SUR...

 
LOGIN :

S'inscrire | Disclaimer

   EN    FR    IT 

 









Légende :    VFR   VFR Marginal   IFR   IFR Intensif   IFR Très Intensif
Visi : 
Plafond : 
>= 8 km
>= 3000ft
5 à 8 km
1000 à 3000 ft
1500m à 5 km
500 à 1000 ft
800 à 1500m
200 à 500 ft
< 800m
< 200 ft
Symboles :   Orages  Brouillard  Fortes neiges  Fortes précipitations  Vent > 20 kt






- Altitude de l'aérodrome : 244 ft
- Code IATA : YQB


CYQB - Quebec - Jean Lesage Int.

DERNIER METAR :
  • 172200Z 26012G19KT 30SM DRSN FEW030 M18/M24 A3065 RMK SC1 SC TR SLP390

METARs EXPIRÉS :
  • 172100Z 27009KT 30SM SKC M17/M24 A3062 RMK SLP380
  • 172000Z 26013KT 30SM FEW035 M16/M23 A3060 RMK SC1 SC TR SLP371
  • 171900Z 23015KT 30SM FEW035 M16/M24 A3057 RMK SC1 SC TR PRESFR SLP362

TAF TAF CYQB
Valide du 17 à 18h jusqu'au 18 à 18h UTC


171738Z 1718/1818 26012KT P6SM FEW030
BECMG 1723/1801 26008KT
FM181500 15005KT P6SM BKN120 RMK NXT FCST BY 180000Z
ATIS : ENG : +1 418-871-6893 FRA : +1 418-871-6895



MET'MAP, la Météo Aéronautique d'un coup d'oeil ! - Copyright ORBIFLY Décembre 2007 - Disclaimer

ORBIFLY MET'MAP TEAM :

Programmation & Développement : Alexandra Zaïnal
Sur une idée originale de : Baudouin d'Aumeries
Assistance à la programmation : Marc-Olivier Méhu
Soutien technique & logistique : Manuel Goepfert

Contact : metmap@orbifly.com




SOURCES & CREDITS :

   NOAA